createdAt,value
2018-12-21T00:00:33.506Z,342.30
2018-12-21T00:01:33.505Z,353.60
2018-12-21T00:02:33.478Z,373.70
2018-12-21T00:03:33.489Z,412.90
2018-12-21T00:04:33.484Z,297.10
2018-12-21T00:05:33.475Z,349.10
2018-12-21T00:06:33.492Z,221.50
2018-12-21T00:07:33.491Z,272.80
2018-12-21T00:08:33.467Z,275.40
2018-12-21T00:09:33.473Z,284.70
2018-12-21T00:10:33.494Z,357.00
2018-12-21T00:11:33.473Z,307.90
2018-12-21T00:12:33.470Z,322.70
2018-12-21T00:13:33.482Z,254.00
2018-12-21T00:14:33.466Z,304.20
2018-12-21T00:15:33.466Z,252.70
2018-12-21T00:16:33.486Z,294.20
2018-12-21T00:17:34.703Z,308.90
2018-12-21T00:18:33.452Z,285.90
2018-12-21T00:19:33.483Z,220.00
2018-12-21T00:20:33.454Z,259.30
2018-12-21T00:21:33.437Z,200.40
2018-12-21T00:22:33.495Z,196.10
2018-12-21T00:23:33.453Z,165.50
2018-12-21T00:24:33.418Z,144.90
2018-12-21T00:25:33.438Z,147.40
2018-12-21T00:26:33.430Z,169.50
2018-12-21T00:27:33.418Z,112.60
2018-12-21T00:28:33.437Z,101.00
2018-12-21T00:29:33.414Z,116.30
2018-12-21T00:30:33.392Z,114.20
2018-12-21T00:31:33.407Z,115.20
2018-12-21T00:32:33.386Z,129.80
2018-12-21T00:33:33.396Z,105.20
2018-12-21T00:34:33.400Z,125.90
2018-12-21T00:35:33.393Z,108.50
2018-12-21T00:36:33.401Z,118.10
2018-12-21T00:37:33.389Z,108.50
2018-12-21T00:38:33.440Z,121.90
2018-12-21T00:39:33.385Z,201.10
2018-12-21T00:40:33.409Z,122.50
2018-12-21T00:41:33.392Z,174.10
2018-12-21T00:42:33.383Z,162.20
2018-12-21T00:43:33.390Z,218.70
2018-12-21T00:44:33.379Z,202.30
2018-12-21T00:45:33.370Z,188.20
2018-12-21T00:46:33.359Z,170.30
2018-12-21T00:47:33.344Z,207.20
2018-12-21T00:48:33.369Z,244.30
2018-12-21T00:49:33.361Z,250.60
2018-12-21T00:50:33.345Z,201.40
2018-12-21T00:51:33.358Z,284.40
2018-12-21T00:52:33.343Z,287.90
2018-12-21T00:53:33.372Z,202.20
2018-12-21T00:54:33.398Z,255.20
2018-12-21T00:55:33.343Z,188.70
2018-12-21T00:56:33.351Z,207.60
2018-12-21T00:57:33.319Z,227.10
2018-12-21T00:58:33.349Z,160.70
2018-12-21T00:59:33.373Z,135.80
2018-12-21T01:00:33.310Z,120.30
2018-12-21T01:01:33.328Z,125.90
2018-12-21T01:02:33.332Z,165.50
2018-12-21T01:03:33.332Z,172.30
2018-12-21T01:04:33.309Z,192.60
2018-12-21T01:05:33.319Z,164.70
2018-12-21T01:06:33.309Z,170.00
2018-12-21T01:07:33.337Z,184.00
2018-12-21T01:08:33.300Z,210.30
2018-12-21T01:09:33.314Z,215.90
2018-12-21T01:10:33.297Z,221.10
2018-12-21T01:11:33.325Z,225.60
2018-12-21T01:12:33.308Z,235.20
2018-12-21T01:13:33.300Z,311.10
2018-12-21T01:14:33.286Z,401.20
2018-12-21T01:15:33.289Z,370.00
2018-12-21T01:16:33.270Z,372.50
2018-12-21T01:17:33.272Z,313.80
2018-12-21T01:18:33.288Z,264.00
2018-12-21T01:19:33.274Z,270.90
2018-12-21T01:20:33.339Z,270.20
2018-12-21T01:21:38.776Z,279.30
2018-12-21T01:22:33.283Z,277.80
2018-12-21T01:23:33.277Z,275.80
2018-12-21T01:24:33.308Z,317.60
2018-12-21T01:25:33.279Z,356.00
2018-12-21T01:26:33.260Z,464.40
2018-12-21T01:27:33.259Z,332.60
2018-12-21T01:28:33.255Z,355.00
2018-12-21T01:29:33.277Z,402.10
2018-12-21T01:30:33.258Z,427.80
2018-12-21T01:31:33.266Z,402.90
2018-12-21T01:32:33.230Z,371.40
2018-12-21T01:33:33.244Z,448.70
2018-12-21T01:34:33.226Z,318.00
2018-12-21T01:35:33.250Z,397.20
2018-12-21T01:36:33.237Z,278.00
2018-12-21T01:37:33.256Z,426.70
2018-12-21T01:38:33.241Z,503.30
2018-12-21T01:39:33.246Z,368.90
2018-12-21T01:40:33.262Z,412.50
2018-12-21T01:41:33.218Z,368.10
2018-12-21T01:42:33.240Z,409.30
2018-12-21T01:43:33.262Z,406.30
2018-12-21T01:44:33.213Z,511.00
2018-12-21T01:45:33.228Z,539.60
2018-12-21T01:46:33.215Z,502.00
2018-12-21T01:47:33.221Z,537.10
2018-12-21T01:48:33.215Z,462.70
2018-12-21T01:49:33.223Z,475.40
2018-12-21T01:50:33.209Z,426.40
2018-12-21T01:51:33.192Z,457.10
2018-12-21T01:52:33.226Z,463.70
2018-12-21T01:53:33.186Z,447.10
2018-12-21T01:54:33.184Z,495.70
2018-12-21T01:55:33.192Z,473.50
2018-12-21T01:56:33.192Z,510.50
2018-12-21T01:57:33.174Z,522.30
2018-12-21T01:58:33.184Z,481.30
2018-12-21T01:59:33.195Z,500.70
2018-12-21T02:00:33.176Z,420.20
2018-12-21T02:01:33.185Z,495.60
2018-12-21T02:02:33.165Z,483.50
2018-12-21T02:03:33.171Z,532.60
2018-12-21T02:04:33.152Z,433.10
2018-12-21T02:05:33.163Z,563.10
2018-12-21T02:06:33.166Z,516.10
2018-12-21T02:07:33.176Z,581.90
2018-12-21T02:08:33.173Z,597.60
2018-12-21T02:09:33.183Z,525.60
2018-12-21T02:10:33.214Z,532.40
2018-12-21T02:11:33.120Z,620.10
2018-12-21T02:12:33.152Z,593.30
2018-12-21T02:13:33.157Z,502.00
2018-12-21T02:14:33.136Z,510.50
2018-12-21T02:15:33.142Z,584.80
2018-12-21T02:16:33.116Z,537.20
2018-12-21T02:17:33.119Z,701.20
2018-12-21T02:18:33.139Z,587.20
2018-12-21T02:19:33.242Z,634.30
2018-12-21T02:20:33.113Z,682.70
2018-12-21T02:21:33.120Z,589.70
2018-12-21T02:22:33.106Z,514.50
2018-12-21T02:23:33.114Z,514.00
2018-12-21T02:24:33.107Z,568.40
2018-12-21T02:25:33.100Z,620.10
2018-12-21T02:26:33.128Z,558.60
2018-12-21T02:27:33.109Z,587.00
2018-12-21T02:28:33.091Z,544.50
2018-12-21T02:29:33.096Z,643.00
2018-12-21T02:30:33.085Z,665.20
2018-12-21T02:31:33.088Z,637.40
2018-12-21T02:32:33.092Z,454.70
2018-12-21T02:33:33.085Z,424.90
2018-12-21T02:34:33.090Z,461.10
2018-12-21T02:35:33.093Z,504.60
2018-12-21T02:36:33.095Z,446.40
2018-12-21T02:37:33.081Z,483.40
2018-12-21T02:38:33.082Z,454.90
2018-12-21T02:39:33.075Z,506.70
2018-12-21T02:40:33.068Z,496.60
2018-12-21T02:41:33.108Z,393.70
2018-12-21T02:42:33.054Z,565.20
2018-12-21T02:43:33.052Z,559.20
2018-12-21T02:44:33.091Z,448.40
2018-12-21T02:45:33.053Z,473.80
2018-12-21T02:46:33.030Z,412.10
2018-12-21T02:47:33.050Z,421.40
2018-12-21T02:48:33.037Z,475.70
2018-12-21T02:49:33.040Z,428.80
2018-12-21T02:50:33.037Z,472.50
2018-12-21T02:51:33.014Z,408.60
2018-12-21T02:52:33.031Z,420.10
2018-12-21T02:53:33.045Z,407.30
2018-12-21T02:54:33.070Z,322.60
2018-12-21T02:55:33.029Z,175.30
2018-12-21T02:56:33.010Z,62.30
2018-12-21T02:57:33.016Z,101.60
2018-12-21T02:58:32.985Z,83.70
2018-12-21T02:59:32.998Z,53.90
2018-12-21T03:00:33.011Z,45.30
2018-12-21T03:01:32.986Z,45.80
2018-12-21T03:02:33.000Z,24.50
2018-12-21T03:03:33.020Z,25.00
2018-12-21T03:04:33.044Z,16.50
2018-12-21T03:05:33.027Z,13.50
2018-12-21T03:06:33.002Z,11.50
2018-12-21T03:07:32.980Z,17.20
2018-12-21T03:08:32.986Z,14.40
2018-12-21T03:09:32.981Z,9.40
2018-12-21T03:10:33.042Z,14.30
2018-12-21T03:11:32.972Z,14.30
2018-12-21T03:12:32.989Z,12.40
2018-12-21T03:13:32.956Z,14.70
2018-12-21T03:14:32.959Z,14.70
2018-12-21T03:15:32.979Z,12.20
2018-12-21T03:16:32.947Z,14.70
2018-12-21T03:17:32.968Z,22.10
2018-12-21T03:18:32.948Z,20.90
2018-12-21T03:19:32.938Z,17.10
2018-12-21T03:20:32.957Z,11.70
2018-12-21T03:21:32.920Z,14.40
2018-12-21T03:22:32.942Z,15.60
2018-12-21T03:23:32.923Z,20.90
2018-12-21T03:24:32.928Z,20.10
2018-12-21T03:25:32.933Z,19.80
2018-12-21T03:26:32.928Z,20.00
2018-12-21T03:27:32.910Z,19.90
2018-12-21T03:28:32.977Z,19.50
2018-12-21T03:29:32.913Z,25.20
2018-12-21T03:30:32.914Z,22.20
2018-12-21T03:31:32.888Z,22.90
2018-12-21T03:32:32.902Z,16.70
2018-12-21T03:33:32.891Z,17.80
2018-12-21T03:34:32.912Z,20.20
2018-12-21T03:35:32.897Z,23.50
2018-12-21T03:36:32.889Z,22.30
2018-12-21T03:37:32.901Z,29.40
2018-12-21T03:38:32.865Z,34.70
2018-12-21T03:39:32.879Z,18.20
2018-12-21T03:40:32.896Z,27.90
2018-12-21T03:41:32.862Z,26.80
2018-12-21T03:42:32.855Z,25.40
2018-12-21T03:43:32.872Z,25.60
2018-12-21T03:44:32.843Z,22.50
2018-12-21T03:45:32.849Z,28.00
2018-12-21T03:46:32.875Z,30.30
2018-12-21T03:47:32.865Z,27.10
2018-12-21T03:48:32.857Z,34.60
2018-12-21T03:49:32.862Z,43.60
2018-12-21T03:50:32.846Z,29.30
2018-12-21T03:51:32.823Z,39.80
2018-12-21T03:52:32.841Z,33.50
2018-12-21T03:53:32.842Z,36.20
2018-12-21T03:54:32.826Z,28.00
2018-12-21T03:55:32.861Z,32.20
2018-12-21T03:56:32.841Z,38.50
2018-12-21T03:57:32.836Z,40.10
2018-12-21T03:58:32.794Z,44.90
2018-12-21T03:59:32.804Z,54.70
2018-12-21T04:00:32.830Z,52.70
2018-12-21T04:01:32.813Z,54.50
2018-12-21T04:02:32.783Z,53.10
2018-12-21T04:03:32.800Z,53.90
2018-12-21T04:04:32.810Z,61.30
2018-12-21T04:05:32.784Z,53.40
2018-12-21T04:06:32.784Z,54.30
2018-12-21T04:07:32.775Z,52.70
2018-12-21T04:08:32.783Z,55.30
2018-12-21T04:09:32.794Z,53.60
2018-12-21T04:10:32.774Z,63.30
2018-12-21T04:11:32.788Z,52.40
2018-12-21T04:12:32.778Z,52.70
2018-12-21T04:13:32.764Z,55.40
2018-12-21T04:14:32.811Z,37.50
2018-12-21T04:15:32.756Z,51.00
2018-12-21T04:16:32.759Z,54.30
2018-12-21T04:17:32.754Z,56.10
2018-12-21T04:18:32.758Z,48.70
2018-12-21T04:19:32.758Z,48.10
2018-12-21T04:20:32.760Z,66.40
2018-12-21T04:21:32.723Z,56.80
2018-12-21T04:22:34.238Z,74.00
2018-12-21T04:23:32.718Z,74.70
2018-12-21T04:24:32.786Z,67.60
2018-12-21T04:25:32.733Z,58.70
2018-12-21T04:26:32.717Z,94.40
2018-12-21T04:27:32.719Z,77.00
2018-12-21T04:28:32.721Z,71.50
2018-12-21T04:29:32.711Z,76.70
2018-12-21T04:30:32.699Z,87.40
2018-12-21T04:31:32.698Z,92.90
2018-12-21T04:32:32.713Z,73.40
2018-12-21T04:33:32.703Z,77.90
2018-12-21T04:34:32.688Z,102.30
2018-12-21T04:35:32.673Z,79.30
2018-12-21T04:36:32.704Z,96.10
2018-12-21T04:37:32.693Z,85.70
2018-12-21T04:38:32.690Z,79.30
2018-12-21T04:39:32.668Z,76.70
2018-12-21T04:40:32.707Z,82.20
2018-12-21T04:41:32.663Z,112.10
2018-12-21T04:42:32.671Z,94.90
2018-12-21T04:43:32.658Z,77.00
2018-12-21T04:44:32.665Z,79.30
2018-12-21T04:45:32.671Z,85.90
2018-12-21T04:46:32.631Z,78.60
2018-12-21T04:47:32.650Z,78.50
2018-12-21T04:48:32.626Z,137.60
2018-12-21T04:49:32.659Z,82.50
2018-12-21T04:50:32.619Z,89.60
2018-12-21T04:51:32.653Z,62.10
2018-12-21T04:52:32.637Z,73.80
2018-12-21T04:53:32.603Z,66.30
2018-12-21T04:54:32.614Z,84.10
2018-12-21T04:55:32.626Z,82.30
2018-12-21T04:56:32.625Z,81.90
2018-12-21T04:57:32.599Z,66.90
2018-12-21T04:58:32.624Z,75.00
2018-12-21T04:59:32.598Z,97.20
2018-12-21T05:00:32.618Z,84.00
2018-12-21T05:01:32.620Z,106.00
2018-12-21T05:02:32.636Z,126.50
2018-12-21T05:03:32.614Z,184.30
2018-12-21T05:04:32.583Z,95.50
2018-12-21T05:05:32.596Z,150.30
2018-12-21T05:06:32.597Z,188.70
2018-12-21T05:07:32.584Z,173.30
2018-12-21T05:08:32.566Z,155.60
2018-12-21T05:09:32.591Z,165.50
2018-12-21T05:10:32.587Z,88.40
2018-12-21T05:11:32.565Z,86.00
2018-12-21T05:12:32.617Z,96.80
2018-12-21T05:13:32.560Z,72.50
2018-12-21T05:14:32.555Z,106.90
2018-12-21T05:15:32.558Z,59.90
2018-12-21T05:16:32.540Z,76.10
2018-12-21T05:17:32.558Z,98.60
2018-12-21T05:18:32.555Z,88.60
2018-12-21T05:19:32.581Z,118.50
2018-12-21T05:20:32.546Z,120.90
2018-12-21T05:21:32.525Z,116.00
2018-12-21T05:22:32.532Z,109.20
2018-12-21T05:23:32.573Z,106.10
2018-12-21T05:24:32.519Z,158.00
2018-12-21T05:25:32.520Z,149.00
2018-12-21T05:26:32.516Z,162.50
2018-12-21T05:27:32.518Z,194.60
2018-12-21T05:28:32.491Z,228.10
2018-12-21T05:29:32.542Z,195.40
2018-12-21T05:30:32.504Z,130.10
2018-12-21T05:31:32.484Z,150.80
2018-12-21T05:32:32.491Z,206.10
2018-12-21T05:33:32.491Z,186.70
2018-12-21T05:34:32.492Z,148.10
2018-12-21T05:35:32.473Z,193.50
2018-12-21T05:36:32.561Z,208.90
2018-12-21T05:37:32.474Z,177.20
2018-12-21T05:38:32.476Z,161.60
2018-12-21T05:39:32.455Z,175.90
2018-12-21T05:40:32.464Z,159.90
2018-12-21T05:41:32.467Z,121.40
2018-12-21T05:42:32.437Z,140.10
2018-12-21T05:43:32.432Z,102.40
2018-12-21T05:44:32.429Z,121.60
2018-12-21T05:45:32.457Z,126.10
2018-12-21T05:46:32.481Z,88.90
2018-12-21T05:47:32.431Z,132.70
2018-12-21T05:48:32.428Z,126.10
2018-12-21T05:49:32.404Z,140.00
2018-12-21T05:50:32.417Z,137.60
2018-12-21T05:51:32.457Z,136.50
2018-12-21T05:52:32.399Z,128.90
2018-12-21T05:53:32.415Z,168.50
2018-12-21T05:54:32.409Z,134.60
2018-12-21T05:55:32.397Z,167.00
2018-12-21T05:56:32.405Z,147.30
2018-12-21T05:57:32.398Z,174.00
2018-12-21T05:58:32.637Z,174.40
2018-12-21T05:59:32.386Z,187.90
2018-12-21T06:00:32.399Z,225.10
2018-12-21T06:01:32.381Z,235.80
2018-12-21T06:02:32.365Z,243.10
2018-12-21T06:03:32.371Z,211.50
2018-12-21T06:04:32.349Z,197.80
2018-12-21T06:05:32.405Z,224.30
2018-12-21T06:06:32.373Z,182.70
2018-12-21T06:07:33.905Z,216.40
2018-12-21T06:08:32.354Z,218.60
2018-12-21T06:09:32.348Z,243.90
2018-12-21T06:10:32.348Z,193.70
2018-12-21T06:11:32.358Z,246.70
2018-12-21T06:12:32.354Z,171.40
2018-12-21T06:13:32.334Z,200.40
2018-12-21T06:14:32.317Z,197.80
2018-12-21T06:15:32.369Z,224.50
2018-12-21T06:16:32.339Z,176.40
2018-12-21T06:17:32.307Z,239.40
2018-12-21T06:18:32.297Z,216.30
2018-12-21T06:19:32.288Z,210.80
2018-12-21T06:20:32.288Z,221.20
2018-12-21T06:21:32.336Z,262.70
2018-12-21T06:22:32.292Z,211.80
2018-12-21T06:23:32.317Z,241.60
2018-12-21T06:24:32.291Z,269.80
2018-12-21T06:25:32.275Z,223.30
2018-12-21T06:26:32.299Z,173.80
2018-12-21T06:27:32.318Z,196.80
2018-12-21T06:28:32.265Z,234.20
2018-12-21T06:29:32.266Z,204.10
2018-12-21T06:30:32.263Z,205.00
2018-12-21T06:31:32.253Z,180.70
2018-12-21T06:32:32.258Z,230.80
2018-12-21T06:33:32.240Z,204.10
2018-12-21T06:34:32.240Z,188.30
2018-12-21T06:35:32.253Z,208.90
2018-12-21T06:36:32.250Z,182.70
2018-12-21T06:37:32.234Z,218.10
2018-12-21T06:38:32.269Z,218.30
2018-12-21T06:39:32.239Z,258.90
2018-12-21T06:40:32.216Z,245.10
2018-12-21T06:41:32.220Z,228.00
2018-12-21T06:42:32.235Z,270.60
2018-12-21T06:43:32.215Z,262.90
2018-12-21T06:44:32.222Z,256.20
2018-12-21T06:45:32.210Z,210.90
2018-12-21T06:46:32.208Z,251.50
2018-12-21T06:47:32.181Z,235.70
2018-12-21T06:48:32.186Z,272.70
2018-12-21T06:49:32.173Z,229.60
2018-12-21T06:50:32.191Z,228.10
2018-12-21T06:51:32.171Z,245.80
2018-12-21T06:52:32.169Z,248.20
2018-12-21T06:53:32.183Z,255.90
2018-12-21T06:54:32.199Z,355.80
2018-12-21T06:55:32.184Z,289.50
2018-12-21T06:56:32.174Z,341.30
2018-12-21T06:57:32.154Z,364.90
2018-12-21T06:58:32.144Z,397.20
2018-12-21T06:59:32.158Z,319.00
2018-12-21T07:00:32.151Z,326.50
2018-12-21T07:01:32.148Z,308.50
2018-12-21T07:02:32.121Z,382.00
2018-12-21T07:03:32.149Z,364.90
2018-12-21T07:04:32.124Z,331.80
2018-12-21T07:05:32.111Z,274.90
2018-12-21T07:06:32.110Z,177.00
2018-12-21T07:07:32.096Z,237.10
2018-12-21T07:08:32.115Z,235.40
2018-12-21T07:09:32.115Z,300.00
2018-12-21T07:10:32.093Z,425.00
2018-12-21T07:11:32.094Z,417.40
2018-12-21T07:12:32.101Z,422.80
2018-12-21T07:13:32.086Z,503.10
2018-12-21T07:14:32.081Z,564.40
2018-12-21T07:15:32.081Z,566.50
2018-12-21T07:16:32.067Z,597.80
2018-12-21T07:17:32.078Z,624.40
2018-12-21T07:18:32.067Z,638.10
2018-12-21T07:19:32.090Z,624.00
2018-12-21T07:20:32.075Z,721.30
2018-12-21T07:21:32.042Z,706.00
2018-12-21T07:22:32.048Z,641.90
2018-12-21T07:23:32.041Z,821.00
2018-12-21T07:24:32.032Z,688.50
2018-12-21T07:25:32.034Z,770.50
2018-12-21T07:26:32.033Z,700.30
2018-12-21T07:27:32.022Z,792.80
2018-12-21T07:28:32.007Z,816.10
2018-12-21T07:29:31.983Z,728.10
2018-12-21T07:30:32.001Z,728.70
2018-12-21T07:31:32.002Z,724.40
2018-12-21T07:32:31.999Z,756.80
2018-12-21T07:33:32.004Z,669.40
2018-12-21T07:34:31.959Z,777.00
2018-12-21T07:35:31.971Z,666.20
2018-12-21T07:36:31.976Z,607.00
2018-12-21T07:37:31.972Z,516.10
2018-12-21T07:38:32.008Z,481.90
2018-12-21T07:39:32.367Z,508.10
2018-12-21T07:40:31.966Z,618.00
2018-12-21T07:41:31.954Z,556.20
2018-12-21T07:42:31.953Z,455.40
2018-12-21T07:43:31.916Z,521.00
2018-12-21T07:44:31.931Z,440.40
2018-12-21T07:45:31.911Z,492.50
2018-12-21T07:46:31.969Z,463.30
2018-12-21T07:47:32.208Z,606.40
2018-12-21T07:48:31.895Z,597.20
2018-12-21T07:49:32.012Z,494.90
2018-12-21T07:50:31.899Z,503.30
2018-12-21T07:51:31.900Z,648.30
2018-12-21T07:52:31.865Z,635.00
2018-12-21T07:53:35.937Z,499.10
2018-12-21T07:54:31.921Z,570.10
2018-12-21T07:55:31.891Z,554.20
2018-12-21T07:56:31.870Z,682.00
2018-12-21T07:57:31.842Z,663.20
2018-12-21T07:58:31.846Z,607.00
2018-12-21T07:59:31.871Z,682.90
2018-12-21T08:00:31.842Z,519.20
2018-12-21T08:01:31.829Z,690.00
2018-12-21T08:02:31.808Z,638.20
2018-12-21T08:03:31.814Z,725.50
2018-12-21T08:04:31.791Z,559.00
2018-12-21T08:05:31.813Z,708.90
2018-12-21T08:06:31.792Z,662.80
2018-12-21T08:07:31.772Z,717.30
2018-12-21T08:08:31.790Z,712.90
2018-12-21T08:09:32.036Z,465.50
2018-12-21T08:10:31.807Z,547.60
2018-12-21T08:11:31.764Z,505.10
2018-12-21T08:12:31.748Z,590.80
2018-12-21T08:13:31.761Z,595.10
2018-12-21T08:14:31.741Z,642.20
2018-12-21T08:15:31.737Z,564.20
2018-12-21T08:16:31.779Z,636.10
2018-12-21T08:17:31.732Z,481.50
2018-12-21T08:18:31.728Z,689.80
2018-12-21T08:19:32.245Z,689.00
2018-12-21T08:20:32.010Z,671.40
2018-12-21T08:21:31.715Z,538.80
2018-12-21T08:22:31.694Z,681.10
2018-12-21T08:23:31.676Z,777.90
2018-12-21T08:24:31.668Z,609.90
2018-12-21T08:25:31.687Z,663.20
2018-12-21T08:26:31.652Z,629.40
2018-12-21T08:27:31.689Z,669.30
2018-12-21T08:28:31.629Z,548.20
2018-12-21T08:29:31.659Z,611.40
2018-12-21T08:30:31.642Z,578.60
2018-12-21T08:31:31.625Z,456.20
2018-12-21T08:32:31.634Z,467.20
2018-12-21T08:33:31.614Z,374.20
2018-12-21T08:34:31.604Z,431.60
2018-12-21T08:35:31.651Z,422.40
2018-12-21T08:36:31.601Z,522.00
2018-12-21T08:37:31.594Z,544.10
2018-12-21T08:38:31.597Z,449.10
2018-12-21T08:39:31.571Z,513.90
2018-12-21T08:40:31.570Z,423.30
2018-12-21T08:41:31.606Z,484.50
2018-12-21T08:42:31.554Z,397.50
2018-12-21T08:43:31.586Z,372.20
2018-12-21T08:44:31.523Z,417.20
2018-12-21T08:45:31.518Z,556.20
2018-12-21T08:46:31.514Z,429.00
2018-12-21T08:47:31.540Z,419.00
2018-12-21T08:48:31.498Z,520.00
2018-12-21T08:49:32.350Z,432.00
2018-12-21T08:50:31.510Z,487.40
2018-12-21T08:51:31.487Z,602.80
2018-12-21T08:52:31.492Z,683.50
2018-12-21T08:53:31.498Z,649.50
2018-12-21T08:54:31.499Z,525.60
2018-12-21T08:55:31.504Z,528.10
2018-12-21T08:56:31.454Z,520.10
2018-12-21T08:57:31.481Z,590.40
2018-12-21T08:58:31.468Z,610.60
2018-12-21T08:59:31.468Z,639.00
2018-12-21T09:00:31.455Z,592.50
2018-12-21T09:01:31.423Z,489.50
2018-12-21T09:02:31.444Z,502.90
2018-12-21T09:03:31.434Z,472.20
2018-12-21T09:04:32.302Z,570.40
2018-12-21T09:05:31.418Z,585.10
2018-12-21T09:06:31.415Z,546.50
2018-12-21T09:07:31.402Z,567.80
2018-12-21T09:08:31.421Z,469.30
2018-12-21T09:09:31.371Z,587.00
2018-12-21T09:10:31.392Z,569.10
2018-12-21T09:11:31.358Z,713.60
2018-12-21T09:12:31.350Z,624.80
2018-12-21T09:13:31.401Z,590.60
2018-12-21T09:14:31.391Z,659.80
2018-12-21T09:15:31.387Z,571.30
2018-12-21T09:16:31.318Z,634.70
2018-12-21T09:17:31.367Z,743.60
2018-12-21T09:18:31.321Z,782.20
2018-12-21T09:19:31.325Z,659.80
2018-12-21T09:20:31.293Z,677.90
2018-12-21T09:21:31.288Z,701.60
2018-12-21T09:22:31.294Z,801.90
2018-12-21T09:23:31.300Z,483.10
2018-12-21T09:24:31.280Z,443.50
2018-12-21T09:25:31.264Z,699.30
2018-12-21T09:26:31.313Z,698.00
2018-12-21T09:27:31.277Z,644.80
2018-12-21T09:28:31.262Z,608.20
2018-12-21T09:29:31.260Z,543.20
2018-12-21T09:30:31.265Z,560.10
2018-12-21T09:31:31.251Z,638.80
2018-12-21T09:32:31.243Z,595.20
2018-12-21T09:33:31.212Z,650.50
2018-12-21T09:34:31.208Z,587.20
2018-12-21T09:35:31.206Z,650.50
2018-12-21T09:36:31.189Z,598.70
2018-12-21T09:37:31.191Z,590.70
2018-12-21T09:38:31.217Z,570.90
2018-12-21T09:39:31.214Z,571.40
2018-12-21T09:40:31.172Z,721.10
2018-12-21T09:41:31.184Z,757.30
2018-12-21T09:42:31.166Z,589.20
2018-12-21T09:43:31.163Z,538.20
2018-12-21T09:44:31.165Z,554.80
2018-12-21T09:45:31.152Z,731.30
2018-12-21T09:46:31.142Z,795.90
2018-12-21T09:47:31.151Z,784.20
2018-12-21T09:48:31.171Z,820.40
2018-12-21T09:49:31.117Z,800.90
2018-12-21T09:50:31.110Z,819.50
2018-12-21T09:51:31.118Z,795.10
2018-12-21T09:52:31.097Z,993.50
2018-12-21T09:53:31.116Z,884.20
2018-12-21T09:54:31.079Z,818.30
2018-12-21T09:55:31.089Z,906.70
2018-12-21T09:56:31.080Z,802.90
2018-12-21T09:57:31.074Z,958.90
2018-12-21T09:58:31.055Z,928.60
2018-12-21T09:59:31.044Z,868.60
2018-12-21T10:00:31.056Z,917.30
2018-12-21T10:01:31.052Z,888.70
2018-12-21T10:02:35.674Z,777.90
2018-12-21T10:03:31.031Z,808.00
2018-12-21T10:04:31.031Z,685.20
2018-12-21T10:05:31.038Z,554.60
2018-12-21T10:06:31.012Z,807.70
2018-12-21T10:07:31.027Z,731.50
2018-12-21T10:08:30.991Z,743.00
2018-12-21T10:09:31.003Z,838.40
2018-12-21T10:10:30.990Z,751.20
2018-12-21T10:11:30.978Z,724.50
2018-12-21T10:12:30.979Z,603.50
2018-12-21T10:13:31.016Z,791.90
2018-12-21T10:14:30.970Z,796.60
2018-12-21T10:15:30.931Z,664.90
2018-12-21T10:16:30.964Z,614.50
2018-12-21T10:17:30.926Z,740.50
2018-12-21T10:18:30.932Z,748.30
2018-12-21T10:19:30.933Z,722.00
2018-12-21T10:20:30.924Z,622.40
2018-12-21T10:21:30.903Z,673.20
2018-12-21T10:22:30.912Z,464.20
2018-12-21T10:23:30.891Z,648.40
2018-12-21T10:24:30.914Z,646.00
2018-12-21T10:25:30.877Z,703.20
2018-12-21T10:26:30.879Z,619.70
2018-12-21T10:27:30.877Z,608.90
2018-12-21T10:28:30.873Z,449.80
2018-12-21T10:29:30.851Z,671.70
2018-12-21T10:30:30.864Z,664.10
2018-12-21T10:31:30.824Z,646.50
2018-12-21T10:32:30.844Z,723.80
2018-12-21T10:33:30.846Z,718.30
2018-12-21T10:34:30.808Z,690.60
2018-12-21T10:35:30.825Z,561.60
2018-12-21T10:36:30.817Z,461.00
2018-12-21T10:37:30.815Z,575.10
2018-12-21T10:38:30.802Z,444.80
2018-12-21T10:39:30.802Z,530.60
2018-12-21T10:40:30.779Z,560.60
2018-12-21T10:41:30.794Z,627.10
2018-12-21T10:42:30.756Z,483.70
2018-12-21T10:43:30.772Z,503.30
2018-12-21T10:44:30.776Z,429.90
2018-12-21T10:45:30.786Z,473.30
2018-12-21T10:46:30.759Z,551.80
2018-12-21T10:47:30.730Z,554.20
2018-12-21T10:48:30.732Z,549.50
2018-12-21T10:49:32.085Z,454.50
2018-12-21T10:50:30.718Z,516.20
2018-12-21T10:51:30.697Z,404.00
2018-12-21T10:52:32.770Z,467.80
2018-12-21T10:53:30.704Z,574.90
2018-12-21T10:54:30.701Z,440.10
2018-12-21T10:55:30.682Z,606.10
2018-12-21T10:56:30.679Z,382.00
2018-12-21T10:57:30.713Z,510.30
2018-12-21T10:58:30.672Z,368.10
2018-12-21T10:59:30.654Z,391.50
2018-12-21T11:00:30.655Z,387.50
2018-12-21T11:01:30.648Z,306.30
2018-12-21T11:02:30.619Z,355.30
2018-12-21T11:03:30.636Z,345.20
2018-12-21T11:04:30.663Z,352.50
2018-12-21T11:05:30.614Z,330.50
2018-12-21T11:06:30.613Z,445.00
2018-12-21T11:07:30.614Z,319.40
2018-12-21T11:08:30.595Z,297.00
2018-12-21T11:09:30.644Z,380.50
2018-12-21T11:10:30.592Z,314.40
2018-12-21T11:11:30.571Z,385.90
2018-12-21T11:12:30.586Z,302.80
2018-12-21T11:13:30.592Z,362.80
2018-12-21T11:14:30.626Z,352.20
2018-12-21T11:15:30.565Z,369.00
2018-12-21T11:16:30.532Z,317.90
2018-12-21T11:17:30.553Z,357.60
2018-12-21T11:18:30.530Z,338.40
2018-12-21T11:19:30.539Z,414.70
2018-12-21T11:20:30.559Z,321.00
2018-12-21T11:21:30.552Z,288.60
2018-12-21T11:22:30.524Z,338.90
2018-12-21T11:23:30.548Z,369.50
2018-12-21T11:24:35.429Z,391.50
2018-12-21T11:25:30.480Z,251.30
2018-12-21T11:26:30.489Z,328.30
2018-12-21T11:27:30.494Z,263.50
2018-12-21T11:28:30.495Z,256.80
2018-12-21T11:29:30.468Z,206.00
2018-12-21T11:30:30.470Z,244.60
2018-12-21T11:31:30.471Z,234.20
2018-12-21T11:32:30.456Z,207.70
2018-12-21T11:33:30.466Z,268.20
2018-12-21T11:34:30.426Z,172.20
2018-12-21T11:35:30.453Z,360.30
2018-12-21T11:36:30.409Z,344.40
2018-12-21T11:37:30.449Z,220.20
2018-12-21T11:38:30.470Z,177.60
2018-12-21T11:39:30.404Z,238.10
2018-12-21T11:40:30.402Z,250.10
2018-12-21T11:41:30.400Z,255.80
2018-12-21T11:42:30.453Z,235.00
2018-12-21T11:43:30.653Z,202.00
2018-12-21T11:44:30.445Z,195.10
2018-12-21T11:45:30.379Z,167.60
2018-12-21T11:46:30.358Z,190.10
2018-12-21T11:47:30.392Z,160.60
2018-12-21T11:48:30.381Z,140.00
2018-12-21T11:49:30.362Z,175.50
2018-12-21T11:50:30.372Z,163.70
2018-12-21T11:51:30.344Z,113.60
2018-12-21T11:52:30.351Z,125.30
2018-12-21T11:53:30.333Z,195.40
2018-12-21T11:54:30.341Z,142.20
2018-12-21T11:55:30.328Z,98.70
2018-12-21T11:56:30.336Z,90.20
2018-12-21T11:57:30.315Z,116.60
2018-12-21T11:58:30.303Z,123.60
2018-12-21T11:59:30.313Z,128.10
2018-12-21T12:00:32.319Z,134.90
2018-12-21T12:01:30.314Z,140.40
2018-12-21T12:02:30.300Z,89.10
2018-12-21T12:03:30.298Z,120.70
2018-12-21T12:04:30.277Z,87.70
2018-12-21T12:05:30.285Z,134.30
2018-12-21T12:06:30.257Z,137.40
2018-12-21T12:07:30.258Z,225.50
2018-12-21T12:08:30.247Z,181.10
2018-12-21T12:09:30.300Z,174.50
2018-12-21T12:10:30.256Z,131.80
2018-12-21T12:11:30.260Z,138.10
2018-12-21T12:12:30.245Z,125.30
2018-12-21T12:13:30.208Z,110.10
2018-12-21T12:14:30.264Z,144.90
2018-12-21T12:15:30.203Z,272.30
2018-12-21T12:16:30.230Z,108.50
2018-12-21T12:17:30.217Z,189.80
2018-12-21T12:18:30.186Z,152.90
2018-12-21T12:19:30.204Z,172.50
2018-12-21T12:20:30.203Z,123.10
2018-12-21T12:21:30.197Z,122.60
2018-12-21T12:22:30.193Z,125.40
2018-12-21T12:23:30.169Z,121.20
2018-12-21T12:24:30.175Z,159.70
2018-12-21T12:25:30.178Z,129.00
2018-12-21T12:26:30.215Z,117.10
2018-12-21T12:27:30.158Z,182.10
2018-12-21T12:28:30.160Z,105.40
2018-12-21T12:29:30.137Z,92.20
2018-12-21T12:30:30.123Z,113.40
2018-12-21T12:31:30.170Z,180.80
2018-12-21T12:32:30.249Z,138.50